Time;durP1;ratioP1;P1;durP2;ratioP2;P2;SDS_P1;SDS_P2;PMS_P1;PMS_P2;Temp;Humidity;BMP_temperature;BMP_pressure;BME280_temperature;BME280_humidity;BME280_pressure;Samples;Min_cycle;Max_cycle;Signal;HPM_P1;HPM_P2
2023/11/19 00:00:26;;;;;;;16.67;15.13;;;;;;;6.07;94.69;98109.78;4937581;28;20425;-72
2023/11/19 00:02:51;;;;;;;16.25;14.70;;;;;;;6.17;95.40;98118.16;4964595;28;20023;-72
2023/11/19 00:05:17;;;;;;;15.65;14.15;;;;;;;6.19;95.06;98103.53;4982605;28;20061;-72
2023/11/19 00:07:42;;;;;;;16.95;15.38;;;;;;;6.25;94.40;98117.91;4972169;28;20031;-71
2023/11/19 00:10:12;;;;;;;14.98;13.57;;;;;;;6.17;94.91;98094.09;4983678;28;20034;-72
2023/11/19 00:12:42;;;;;;;16.10;14.60;;;;;;;6.30;95.11;98098.53;4963949;28;20089;-72
2023/11/19 00:15:14;;;;;;;16.17;14.68;;;;;;;6.23;94.48;98082.53;4933372;28;20096;-71
2023/11/19 00:17:44;;;;;;;18.63;16.77;;;;;;;6.20;95.02;98078.44;4960320;28;20038;-72
2023/11/19 00:20:14;;;;;;;18.08;16.27;;;;;;;6.23;95.04;98109.28;4965342;28;20494;-71
2023/11/19 00:22:39;;;;;;;16.00;14.57;;;;;;;6.17;94.94;98121.66;4957138;28;20031;-72
2023/11/19 00:25:06;;;;;;;14.80;13.40;;;;;;;6.17;95.21;98120.84;4951118;28;20030;-72
2023/11/19 00:27:31;;;;;;;17.58;15.88;;;;;;;6.25;94.99;98113.34;4965410;28;20031;-72
2023/11/19 00:29:56;;;;;;;17.20;15.60;;;;;;;6.31;95.55;98117.00;4959695;28;20082;-71
2023/11/19 00:32:22;;;;;;;16.23;14.63;;;;;;;6.23;94.88;98107.41;4972677;28;20376;-70
2023/11/19 00:34:48;;;;;;;15.15;13.52;;;;;;;6.28;95.19;98090.69;4976735;28;20040;-70
2023/11/19 00:37:15;;;;;;;16.33;14.75;;;;;;;6.28;95.20;98071.97;4973865;28;20070;-71
2023/11/19 00:39:41;;;;;;;15.32;13.93;;;;;;;6.30;94.76;98077.94;4957128;28;20022;-71
2023/11/19 00:42:06;;;;;;;14.52;13.18;;;;;;;6.31;94.86;98066.19;4961379;28;20038;-70
2023/11/19 00:44:31;;;;;;;14.70;13.38;;;;;;;6.25;94.44;98041.16;4947151;28;20031;-71
2023/11/19 00:46:57;;;;;;;15.32;13.93;;;;;;;6.22;95.42;98030.09;4961672;28;20038;-71
2023/11/19 00:49:22;;;;;;;14.43;13.13;;;;;;;6.32;94.86;98034.94;4976170;28;20033;-70
2023/11/19 00:51:47;;;;;;;13.75;12.35;;;;;;;6.31;95.15;98042.13;4985200;28;20545;-71
2023/11/19 00:54:13;;;;;;;12.63;11.52;;;;;;;6.35;95.42;98069.28;4981555;28;20049;-70
2023/11/19 00:56:39;;;;;;;13.35;12.15;;;;;;;6.38;95.82;98074.97;4946551;28;20092;-71
2023/11/19 00:59:05;;;;;;;14.25;12.98;;;;;;;6.45;94.56;98090.97;4975908;28;20607;-71
2023/11/19 01:01:30;;;;;;;14.00;12.70;;;;;;;6.42;95.43;98097.56;4959629;28;20059;-71
2023/11/19 01:03:57;;;;;;;12.25;11.15;;;;;;;6.33;94.43;98066.78;4935756;28;20031;-71
2023/11/19 01:06:29;;;;;;;13.00;11.70;;;;;;;6.38;94.90;98064.28;4964354;28;20498;-71
2023/11/19 01:08:56;;;;;;;12.32;11.23;;;;;;;6.48;94.68;98079.81;4969187;28;20060;-72
2023/11/19 01:11:22;;;;;;;12.75;11.65;;;;;;;6.46;94.41;98072.03;4968275;28;20017;-72
2023/11/19 01:13:49;;;;;;;11.45;10.35;;;;;;;6.46;95.42;98077.38;4947479;28;20034;-70
2023/11/19 01:16:15;;;;;;;12.05;11.02;;;;;;;6.45;95.09;98058.84;4964087;28;20065;-71
2023/11/19 01:18:40;;;;;;;12.30;11.30;;;;;;;6.40;95.28;98075.56;4966930;28;20482;-72
2023/11/19 01:21:05;;;;;;;12.43;11.32;;;;;;;6.51;94.83;98084.75;4990421;28;20053;-73
2023/11/19 01:23:32;;;;;;;13.25;11.95;;;;;;;6.41;94.60;98074.53;4956135;28;20041;-71
2023/11/19 01:25:58;;;;;;;13.07;11.98;;;;;;;6.41;95.50;98074.53;4940388;28;20037;-71
2023/11/19 01:28:23;;;;;;;12.55;11.45;;;;;;;6.51;95.49;98090.88;4952858;28;20035;-72
2023/11/19 01:30:52;;;;;;;14.35;13.05;;;;;;;6.55;94.87;98080.56;4968123;28;20031;-71
2023/11/19 01:33:17;;;;;;;14.57;13.27;;;;;;;6.49;95.07;98065.44;4956240;28;20053;-70
2023/11/19 01:35:43;;;;;;;14.98;13.68;;;;;;;6.42;95.43;98051.31;4956164;28;20479;-71
2023/11/19 01:38:08;;;;;;;14.88;13.57;;;;;;;6.51;95.11;98058.78;4955959;28;20042;-72
2023/11/19 01:40:36;;;;;;;15.75;14.25;;;;;;;6.43;95.87;98040.38;4955948;28;20410;-71
2023/11/19 01:43:02;;;;;;;15.68;14.18;;;;;;;6.45;95.31;98048.16;4956128;28;20046;-70
2023/11/19 01:45:31;;;;;;;15.48;14.05;;;;;;;6.47;94.45;98033.53;4959791;28;20018;-71
2023/11/19 01:47:59;;;;;;;17.45;15.75;;;;;;;6.57;94.91;98043.72;4959152;28;20034;-71
2023/11/19 01:50:24;;;;;;;15.50;14.07;;;;;;;6.51;94.97;98034.72;4945442;28;20605;-71
2023/11/19 01:52:54;;;;;;;15.60;14.13;;;;;;;6.44;94.99;98012.56;4966844;28;20065;-71
2023/11/19 01:55:20;;;;;;;16.25;14.80;;;;;;;6.51;95.48;98005.28;4953585;28;20039;-71
2023/11/19 01:57:46;;;;;;;16.00;14.50;;;;;;;6.57;95.03;98020.47;4939546;28;20058;-71
2023/11/19 02:00:12;;;;;;;17.10;15.45;;;;;;;6.56;94.74;98010.78;4942779;28;20490;-72
2023/11/19 02:02:43;;;;;;;15.95;14.48;;;;;;;6.54;94.62;97999.50;4952893;28;20028;-72
2023/11/19 02:05:09;;;;;;;17.10;14.25;;;;;;;6.47;95.22;97982.69;4961273;28;20027;-72
2023/11/19 02:07:35;;;;;;;15.07;13.57;;;;;;;6.58;95.47;98003.34;4939527;28;20018;-72
2023/11/19 02:10:02;;;;;;;15.48;14.02;;;;;;;6.58;95.41;98006.03;4953227;28;20090;-72
2023/11/19 02:12:28;;;;;;;16.80;15.10;;;;;;;6.49;95.55;97991.31;4971421;28;20019;-72
2023/11/19 02:14:54;;;;;;;16.17;14.52;;;;;;;6.58;95.66;98006.03;4945926;28;20042;-72
2023/11/19 02:17:34;;;;;;;14.35;13.02;;;;;;;6.61;95.07;97996.75;4971518;28;20097;-72
2023/11/19 02:19:59;;;;;;;17.02;15.23;;;;;;;6.50;95.78;97971.56;4959076;28;20038;-72
2023/11/19 02:22:27;;;;;;;17.02;15.30;;;;;;;6.54;96.07;97987.97;4974710;28;20034;-73
2023/11/19 02:24:56;;;;;;;17.88;15.98;;;;;;;6.56;94.96;97981.34;4992913;28;20125;-72
2023/11/19 02:27:37;;;;;;;16.02;14.43;;;;;;;6.59;94.48;97991.63;4954459;28;20509;-71
2023/11/19 02:30:06;;;;;;;17.23;15.52;;;;;;;6.57;94.96;97983.00;4978757;28;20589;-72
2023/11/19 02:32:31;;;;;;;16.55;15.05;;;;;;;6.47;95.16;97972.00;4960404;28;20030;-73
2023/11/19 02:34:56;;;;;;;17.15;15.43;;;;;;;6.66;96.00;98007.59;4962608;28;20039;-72
2023/11/19 02:37:22;;;;;;;16.30;14.77;;;;;;;6.69;95.49;97997.28;4966444;28;20550;-72
2023/11/19 02:39:47;;;;;;;17.05;15.35;;;;;;;6.64;94.83;97993.63;4955793;29;20038;-72
2023/11/19 02:42:14;;;;;;;16.90;15.20;;;;;;;6.63;95.68;97987.44;4967880;28;20034;-71
2023/11/19 02:44:43;;;;;;;17.27;15.68;;;;;;;6.64;95.73;97978.41;4959228;28;20042;-71
2023/11/19 02:47:09;;;;;;;16.25;14.70;;;;;;;6.58;95.31;97973.91;4976941;28;20022;-71
2023/11/19 02:49:34;;;;;;;16.80;15.27;;;;;;;6.70;96.25;97980.16;4990606;28;20505;-72
2023/11/19 02:51:59;;;;;;;18.35;16.55;;;;;;;6.70;95.72;97966.78;4980154;28;20105;-72
2023/11/19 02:54:27;;;;;;;19.45;17.65;;;;;;;6.71;96.68;97957.72;4965751;28;20546;-72
2023/11/19 02:56:55;;;;;;;19.67;17.67;;;;;;;6.68;96.28;97939.44;4990077;28;20031;-72
2023/11/19 02:59:27;;;;;;;18.55;16.75;;;;;;;6.63;96.07;97917.88;4994496;28;20057;-71
2023/11/19 03:01:53;;;;;;;17.73;15.93;;;;;;;6.73;95.26;97934.22;4952020;28;20031;-72
2023/11/19 03:04:20;;;;;;;18.25;16.35;;;;;;;6.72;95.57;97918.41;4942478;28;20037;-72
2023/11/19 03:06:46;;;;;;;20.20;18.02;;;;;;;6.63;95.31;97893.81;4968121;28;20034;-72
2023/11/19 03:09:11;;;;;;;18.50;16.75;;;;;;;6.70;96.13;97891.84;4961741;28;20023;-72
2023/11/19 03:11:37;;;;;;;17.98;16.20;;;;;;;6.73;95.51;97896.75;4968515;28;20478;-71
2023/11/19 03:14:05;;;;;;;18.73;16.92;;;;;;;6.74;96.70;97893.06;4979580;28;20487;-71
2023/11/19 03:16:30;;;;;;;16.75;15.05;;;;;;;6.76;96.11;97890.97;4965899;28;20027;-71
2023/11/19 03:18:56;;;;;;;16.23;14.75;;;;;;;6.73;95.56;97863.84;4962821;28;20402;-71
2023/11/19 03:21:29;;;;;;;13.48;12.27;;;;;;;6.81;95.76;97872.34;4984092;28;20038;-71
2023/11/19 03:23:55;;;;;;;14.20;12.80;;;;;;;6.85;95.92;97884.25;4947481;28;20038;-71
2023/11/19 03:26:21;;;;;;;13.98;12.68;;;;;;;6.93;96.58;97886.56;4938229;28;20387;-72
2023/11/19 03:28:47;;;;;;;12.30;11.30;;;;;;;6.89;96.67;97869.34;4965819;28;20031;-72
2023/11/19 03:31:12;;;;;;;12.35;11.27;;;;;;;6.88;96.09;97857.00;4963888;28;20030;-72
2023/11/19 03:33:38;;;;;;;11.95;10.85;;;;;;;6.89;96.28;97850.63;4981790;28;20118;-72
2023/11/19 03:36:03;;;;;;;11.48;10.48;;;;;;;6.96;96.43;97875.41;4982845;28;20049;-71
2023/11/19 03:38:29;;;;;;;11.23;10.23;;;;;;;6.87;96.17;97854.56;4959121;28;20121;-70
2023/11/19 03:40:54;;;;;;;10.35;9.45;;;;;;;6.87;96.74;97859.91;4968505;28;20080;-70
2023/11/19 03:43:19;;;;;;;12.02;10.93;;;;;;;7.01;96.76;97849.81;4975752;28;20046;-70
2023/11/19 03:45:46;;;;;;;11.25;10.25;;;;;;;6.95;96.13;97841.66;4962925;28;20037;-70
2023/11/19 03:48:11;;;;;;;10.48;9.57;;;;;;;7.08;95.71;97847.84;4961082;28;20045;-70
2023/11/19 03:50:37;;;;;;;9.95;9.15;;;;;;;6.99;96.79;97836.66;4964466;28;20031;-71
2023/11/19 03:53:02;;;;;;;11.38;10.32;;;;;;;7.12;96.04;97857.06;4983360;28;20070;-70
2023/11/19 03:55:29;;;;;;;10.50;9.52;;;;;;;6.85;96.08;97814.66;4984354;28;20026;-70
2023/11/19 03:57:54;;;;;;;11.77;10.50;;;;;;;7.10;95.93;97848.44;4980277;28;20066;-70
2023/11/19 04:00:20;;;;;;;11.75;10.65;;;;;;;7.15;95.80;97867.31;4945005;28;20514;-70
2023/11/19 04:02:46;;;;;;;12.25;10.98;;;;;;;7.20;95.84;97862.91;4963871;28;20430;-70
2023/11/19 04:05:12;;;;;;;11.52;10.52;;;;;;;7.13;95.52;97850.66;4946940;28;20096;-72
2023/11/19 04:07:37;;;;;;;13.00;11.80;;;;;;;7.17;96.43;97857.19;4948525;28;20162;-71
2023/11/19 04:10:03;;;;;;;11.82;10.73;;;;;;;7.22;95.83;97862.66;4957359;28;20034;-69
2023/11/19 04:12:29;;;;;;;12.13;11.02;;;;;;;7.25;96.12;97854.16;4973291;28;20027;-69
2023/11/19 04:14:56;;;;;;;12.55;11.45;;;;;;;7.26;96.78;97853.13;4966619;28;20080;-70
2023/11/19 04:17:21;;;;;;;12.43;11.32;;;;;;;7.23;96.12;97869.66;4975693;28;20058;-72
2023/11/19 04:19:47;;;;;;;14.85;13.43;;;;;;;7.12;96.51;97841.00;4951600;28;20037;-69
2023/11/19 04:22:13;;;;;;;13.00;11.80;;;;;;;7.28;96.51;97857.19;4975186;28;20155;-69
2023/11/19 04:24:38;;;;;;;14.13;12.77;;;;;;;7.32;96.11;97863.72;4946520;28;20031;-70
2023/11/19 04:27:06;;;;;;;14.77;13.48;;;;;;;7.28;96.37;97867.09;4964911;28;20474;-69
2023/11/19 04:29:31;;;;;;;15.02;13.57;;;;;;;7.17;95.88;97855.31;4968232;28;20027;-71
2023/11/19 04:31:57;;;;;;;15.25;13.75;;;;;;;7.40;96.71;97876.75;4979098;28;20035;-70
2023/11/19 04:34:22;;;;;;;16.08;14.48;;;;;;;7.39;96.30;97861.75;4943600;28;20073;-70
2023/11/19 04:36:47;;;;;;;16.73;15.05;;;;;;;7.31;96.00;97855.91;4962477;28;20074;-70
2023/11/19 04:39:15;;;;;;;16.73;14.95;;;;;;;7.41;96.08;97862.34;4961284;28;20030;-69
2023/11/19 04:41:50;;;;;;;17.42;15.73;;;;;;;7.41;96.35;97858.84;4947946;28;20039;-70
2023/11/19 04:44:16;;;;;;;16.97;15.27;;;;;;;7.42;96.04;97857.81;4962399;28;20113;-70
2023/11/19 04:46:43;;;;;;;16.65;15.05;;;;;;;7.46;96.35;97854.44;4974397;28;20126;-69
2023/11/19 04:49:10;;;;;;;16.50;14.75;;;;;;;7.44;95.92;97866.41;4971698;28;20559;-68
2023/11/19 04:51:42;;;;;;;17.52;15.82;;;;;;;7.45;96.20;97851.97;4984181;28;20018;-68
2023/11/19 04:54:10;;;;;;;17.15;15.40;;;;;;;7.46;95.98;97842.88;4975334;28;20049;-68
2023/11/19 04:56:37;;;;;;;18.05;16.15;;;;;;;7.47;96.46;97817.72;4964617;28;20034;-68
2023/11/19 04:59:02;;;;;;;17.98;16.17;;;;;;;7.52;95.75;97831.22;4974968;28;20118;-70
2023/11/19 05:01:28;;;;;;;17.67;15.90;;;;;;;7.36;96.67;97810.50;4962400;28;20478;-69
2023/11/19 05:03:53;;;;;;;18.63;16.73;;;;;;;7.53;96.45;97843.59;4968341;28;20042;-69
2023/11/19 05:06:18;;;;;;;20.05;17.27;;;;;;;7.59;96.45;97819.34;4962639;28;20038;-69
2023/11/19 05:08:44;;;;;;;20.05;17.90;;;;;;;7.64;96.60;97829.34;4954490;28;20411;-69
2023/11/19 05:11:12;;;;;;;18.23;16.33;;;;;;;7.62;96.32;97810.03;4961685;28;20056;-69
2023/11/19 05:13:38;;;;;;;20.33;17.25;;;;;;;7.71;96.72;97830.06;4959299;28;20506;-70
2023/11/19 05:16:03;;;;;;;22.50;18.92;;;;;;;7.68;96.53;97827.81;4963747;28;20059;-69
2023/11/19 05:18:29;;;;;;;19.42;17.27;;;;;;;7.64;96.29;97813.28;4944282;28;20089;-70
2023/11/19 05:20:54;;;;;;;19.55;17.60;;;;;;;7.64;96.48;97807.91;4986313;28;20036;-69
2023/11/19 05:23:20;;;;;;;19.42;17.38;;;;;;;7.77;96.84;97822.94;4978553;28;20035;-70
2023/11/19 05:25:45;;;;;;;21.33;18.23;;;;;;;7.69;96.38;97805.34;4956823;28;20027;-70
2023/11/19 05:28:11;;;;;;;21.98;18.23;;;;;;;7.79;96.70;97835.06;4977922;28;20402;-70
2023/11/19 05:30:36;;;;;;;20.98;18.38;;;;;;;7.55;96.27;97786.03;4944804;28;20552;-71
2023/11/19 05:33:01;;;;;;;21.45;17.48;;;;;;;7.75;96.25;97809.75;4965204;28;20061;-71
2023/11/19 05:35:27;;;;;;;19.05;17.05;;;;;;;7.77;96.96;97810.34;4960372;28;20106;-72
2023/11/19 05:37:52;;;;;;;18.17;16.35;;;;;;;7.84;97.18;97819.06;4983794;28;20042;-71
2023/11/19 05:40:20;;;;;;;20.27;18.15;;;;;;;7.85;96.71;97804.63;4957274;28;20023;-71
2023/11/19 05:42:45;;;;;;;20.30;17.17;;;;;;;7.94;96.49;97813.91;4979070;28;20039;-70
2023/11/19 05:45:11;;;;;;;19.27;17.25;;;;;;;7.88;96.47;97814.88;4978279;28;20026;-71
2023/11/19 05:47:37;;;;;;;23.40;19.17;;;;;;;7.99;97.16;97822.06;4964127;28;20125;-71
2023/11/19 05:50:03;;;;;;;19.98;17.83;;;;;;;8.03;96.59;97823.22;4963709;28;20030;-70
2023/11/19 05:52:33;;;;;;;21.48;17.83;;;;;;;8.08;96.43;97823.31;4959188;28;20109;-70
2023/11/19 05:55:02;;;;;;;22.38;19.30;;;;;;;8.11;96.64;97814.81;4981220;28;20498;-70
2023/11/19 05:57:29;;;;;;;19.92;17.83;;;;;;;8.11;96.85;97804.09;4960274;28;20041;-70
2023/11/19 05:59:54;;;;;;;21.23;18.48;;;;;;;8.07;96.04;97792.22;4982792;28;20026;-70
2023/11/19 06:02:20;;;;;;;19.95;17.27;;;;;;;8.12;96.51;97804.91;4957422;28;20042;-70
2023/11/19 06:04:47;;;;;;;18.67;16.63;;;;;;;8.13;96.73;97811.88;4958841;28;20438;-70
2023/11/19 06:07:13;;;;;;;18.77;16.85;;;;;;;8.16;96.95;97814.94;4980723;28;20061;-70
2023/11/19 06:09:39;;;;;;;19.75;17.42;;;;;;;8.17;97.13;97823.75;4976660;28;20419;-70
2023/11/19 06:12:06;;;;;;;24.80;19.85;;;;;;;8.20;96.71;97828.66;4974745;28;20106;-70
2023/11/19 06:14:31;;;;;;;24.10;19.55;;;;;;;8.21;96.81;97844.50;4961631;28;20022;-70
2023/11/19 06:16:57;;;;;;;22.48;18.90;;;;;;;8.16;96.18;97828.34;4959463;28;20514;-70
2023/11/19 06:19:24;;;;;;;21.42;18.60;;;;;;;8.27;96.25;97830.19;4962525;28;20018;-70
2023/11/19 06:21:49;;;;;;;21.40;18.10;;;;;;;8.21;96.71;97814.22;4961478;28;20451;-71
2023/11/19 06:24:15;;;;;;;23.77;19.65;;;;;;;8.27;96.80;97814.09;4960342;28;20117;-70
2023/11/19 06:26:40;;;;;;;25.65;20.33;;;;;;;8.26;96.89;97807.09;4974312;28;20085;-69
2023/11/19 06:29:06;;;;;;;25.55;20.42;;;;;;;8.28;96.63;97794.25;4962282;28;20105;-71
2023/11/19 06:31:31;;;;;;;25.42;22.17;;;;;;;8.31;96.40;97804.50;4976417;28;20403;-70
2023/11/19 06:33:56;;;;;;;29.55;22.15;;;;;;;8.30;96.77;97802.06;4963659;28;20022;-70
2023/11/19 06:36:22;;;;;;;27.25;21.48;;;;;;;8.19;96.63;97787.59;4979741;28;20046;-70
2023/11/19 06:38:47;;;;;;;56.45;48.10;;;;;;;8.39;96.87;97811.38;4977483;28;20054;-70
2023/11/19 06:41:13;;;;;;;25.48;20.48;;;;;;;8.41;97.03;97811.13;4974363;28;20034;-71
2023/11/19 06:43:39;;;;;;;31.02;22.88;;;;;;;8.37;96.87;97802.75;4956543;28;20395;-72
2023/11/19 06:46:05;;;;;;;26.73;21.23;;;;;;;8.43;96.82;97795.59;4980708;28;20062;-71
2023/11/19 06:48:32;;;;;;;28.95;22.27;;;;;;;8.51;96.28;97803.25;4975204;28;20050;-71
2023/11/19 06:50:57;;;;;;;27.60;21.92;;;;;;;8.49;96.63;97794.63;4958265;28;20113;-70
2023/11/19 06:53:23;;;;;;;29.42;22.67;;;;;;;8.48;96.51;97787.63;4958524;28;20071;-71
2023/11/19 06:55:48;;;;;;;28.40;21.75;;;;;;;8.58;97.10;97804.75;4977752;28;20050;-72
2023/11/19 06:58:13;;;;;;;22.88;18.83;;;;;;;8.53;97.07;97791.22;4978055;28;20031;-70
2023/11/19 07:00:39;;;;;;;29.30;22.40;;;;;;;8.64;97.21;97797.59;4962655;28;20129;-71
2023/11/19 07:03:08;;;;;;;24.23;18.63;;;;;;;8.59;96.73;97797.53;4977275;28;20034;-70
2023/11/19 07:05:37;;;;;;;21.88;18.23;;;;;;;8.72;97.01;97799.88;4976652;28;20042;-69
2023/11/19 07:08:02;;;;;;;22.88;18.88;;;;;;;8.68;97.02;97788.00;4957751;28;20473;-70
2023/11/19 07:10:29;;;;;;;24.92;19.70;;;;;;;8.70;96.85;97791.25;4960422;28;20125;-70
2023/11/19 07:12:56;;;;;;;19.98;16.88;;;;;;;8.81;97.66;97809.16;4964332;28;20085;-70
2023/11/19 07:15:21;;;;;;;29.58;22.70;;;;;;;8.74;97.61;97811.19;4974236;28;20046;-70
2023/11/19 07:17:48;;;;;;;28.35;20.73;;;;;;;8.84;97.15;97808.69;4980251;28;20108;-70
2023/11/19 07:20:14;;;;;;;24.73;18.58;;;;;;;8.88;96.99;97807.97;4984225;28;20034;-70
2023/11/19 07:22:43;;;;;;;30.08;21.27;;;;;;;8.92;97.16;97810.97;4938816;29;20023;-70
2023/11/19 07:25:08;;;;;;;25.30;18.92;;;;;;;8.82;97.49;97795.50;4973131;28;20042;-69
2023/11/19 07:27:33;;;;;;;28.33;21.83;;;;;;;8.93;96.97;97818.78;4978882;28;20026;-70
2023/11/19 07:29:59;;;;;;;95.20;69.38;;;;;;;8.90;96.97;97818.44;4961028;28;20089;-71
2023/11/19 07:32:24;;;;;;;92.35;61.97;;;;;;;8.96;97.11;97839.78;4949175;28;20390;-72
2023/11/19 07:34:50;;;;;;;29.33;21.67;;;;;;;9.00;97.43;97840.94;4981558;28;20368;-71
2023/11/19 07:37:16;;;;;;;25.20;18.88;;;;;;;8.98;97.47;97832.28;4963291;28;20050;-70
2023/11/19 07:39:42;;;;;;;20.63;17.25;;;;;;;9.09;97.38;97827.91;4977150;28;20038;-71
2023/11/19 07:42:09;;;;;;;25.20;19.20;;;;;;;9.10;97.45;97828.72;4982538;28;20026;-71
2023/11/19 07:44:34;;;;;;;19.65;16.13;;;;;;;9.19;97.33;97841.53;4962222;28;20122;-69
2023/11/19 07:47:00;;;;;;;19.58;16.00;;;;;;;9.22;96.88;97840.22;4978210;28;20112;-70
2023/11/19 07:49:25;;;;;;;17.02;14.13;;;;;;;9.15;96.98;97823.44;4962989;28;20038;-71
2023/11/19 07:51:51;;;;;;;14.57;12.63;;;;;;;9.29;97.26;97848.94;4960173;28;20029;-70
2023/11/19 07:54:17;;;;;;;18.20;14.85;;;;;;;9.31;96.96;97852.19;4962401;28;20037;-70
2023/11/19 07:56:42;;;;;;;22.33;19.10;;;;;;;9.37;97.65;97849.31;4961675;28;20034;-70
2023/11/19 07:59:08;;;;;;;20.95;17.30;;;;;;;9.43;97.50;97861.78;4967202;28;20088;-70
2023/11/19 08:01:33;;;;;;;19.80;16.90;;;;;;;9.40;97.57;97838.09;4947872;28;20073;-70
2023/11/19 08:03:59;;;;;;;24.40;21.35;;;;;;;9.44;98.08;97841.09;4952432;28;20053;-70
2023/11/19 08:06:24;;;;;;;21.33;17.27;;;;;;;9.31;97.45;97812.66;4964024;28;20026;-70
2023/11/19 08:08:49;;;;;;;17.83;14.93;;;;;;;9.48;97.53;97832.28;4947878;28;20113;-70
2023/11/19 08:11:15;;;;;;;16.63;14.88;;;;;;;9.48;97.80;97829.59;4964760;28;21008;-71
2023/11/19 08:13:40;;;;;;;16.40;14.75;;;;;;;9.58;98.08;97840.50;4977523;28;20162;-70
2023/11/19 08:16:06;;;;;;;18.88;16.98;;;;;;;9.55;98.07;97832.09;4949746;28;20026;-71
2023/11/19 08:18:32;;;;;;;20.50;17.52;;;;;;;9.59;98.46;97839.44;4978425;28;20039;-70
2023/11/19 08:20:59;;;;;;;16.35;14.65;;;;;;;9.69;97.94;97853.03;4967021;28;20030;-70
2023/11/19 08:23:25;;;;;;;16.27;14.68;;;;;;;9.72;98.14;97849.03;4956954;28;20034;-70
2023/11/19 08:25:51;;;;;;;17.17;15.48;;;;;;;9.77;97.95;97850.97;4958416;28;20093;-70
2023/11/19 08:28:16;;;;;;;19.05;17.05;;;;;;;9.82;98.02;97843.00;4962355;28;20105;-71
2023/11/19 08:30:43;;;;;;;17.95;15.48;;;;;;;9.79;97.47;97833.53;4958177;28;20031;-70
2023/11/19 08:33:09;;;;;;;16.77;13.55;;;;;;;9.86;97.74;97849.50;4981229;28;20116;-70
2023/11/19 08:35:34;;;;;;;17.50;15.43;;;;;;;9.72;98.27;97824.84;4979126;28;20058;-70
2023/11/19 08:38:00;;;;;;;16.92;15.25;;;;;;;9.89;97.94;97843.63;4944013;28;20113;-70
2023/11/19 08:40:29;;;;;;;18.10;15.88;;;;;;;9.95;98.02;97842.63;4980301;28;20086;-70
2023/11/19 08:42:55;;;;;;;18.10;16.27;;;;;;;9.92;98.10;97837.75;4978695;28;20145;-70
2023/11/19 08:45:21;;;;;;;20.70;18.48;;;;;;;9.96;97.88;97839.72;4977421;28;20026;-70
2023/11/19 08:47:46;;;;;;;19.85;16.13;;;;;;;9.97;98.30;97837.81;4963744;28;20049;-70
2023/11/19 08:50:12;;;;;;;16.92;13.95;;;;;;;9.89;97.80;97827.50;4963224;28;20030;-71
2023/11/19 08:52:37;;;;;;;15.15;13.65;;;;;;;10.07;98.39;97854.09;4960049;28;20027;-71
2023/11/19 08:55:05;;;;;;;18.77;16.88;;;;;;;10.14;97.97;97852.06;4957908;28;20475;-71
2023/11/19 08:57:31;;;;;;;21.50;18.50;;;;;;;10.17;98.07;97851.56;4961137;28;20038;-70
2023/11/19 08:59:56;;;;;;;25.13;22.42;;;;;;;10.27;98.03;97851.66;4971903;28;20038;-70
2023/11/19 09:02:21;;;;;;;21.98;19.00;;;;;;;10.32;98.05;97851.75;4961544;28;20043;-69
2023/11/19 09:04:47;;;;;;;16.95;15.20;;;;;;;10.22;97.62;97822.81;4976641;28;20030;-70
2023/11/19 09:07:12;;;;;;;15.75;13.95;;;;;;;10.40;97.71;97840.53;4980729;28;20041;-71
2023/11/19 09:09:38;;;;;;;15.07;13.57;;;;;;;10.54;97.68;97849.03;4958599;28;20418;-71
2023/11/19 09:12:03;;;;;;;13.65;12.35;;;;;;;10.55;97.84;97843.38;4972534;28;20063;-71
2023/11/19 09:14:30;;;;;;;12.90;11.70;;;;;;;10.62;97.96;97851.28;4962058;28;20030;-71
2023/11/19 09:16:56;;;;;;;12.40;10.85;;;;;;;10.68;97.70;97839.50;4960782;28;20089;-71
2023/11/19 09:19:21;;;;;;;11.32;10.32;;;;;;;10.77;98.28;97843.38;4947611;28;20545;-70
2023/11/19 09:21:47;;;;;;;10.80;9.90;;;;;;;10.87;98.10;97849.69;4963308;28;20625;-71
2023/11/19 09:24:13;;;;;;;11.27;9.93;;;;;;;10.96;98.26;97856.22;4946460;28;20498;-70
2023/11/19 09:26:41;;;;;;;11.30;10.35;;;;;;;11.04;98.27;97853.06;4955788;28;20038;-70
2023/11/19 09:29:07;;;;;;;12.05;10.90;;;;;;;11.13;97.80;97856.91;4964875;28;20571;-71
2023/11/19 09:31:32;;;;;;;9.32;8.52;;;;;;;11.18;97.99;97852.66;4960803;28;20034;-71
2023/11/19 09:33:58;;;;;;;9.85;8.85;;;;;;;11.23;98.35;97852.66;4957925;28;20398;-71
2023/11/19 09:36:23;;;;;;;15.05;13.73;;;;;;;11.25;98.04;97842.47;4979002;28;20042;-71
2023/11/19 09:38:49;;;;;;;16.02;14.52;;;;;;;11.31;98.50;97847.66;4959034;28;20034;-71
2023/11/19 09:41:14;;;;;;;15.40;13.27;;;;;;;11.41;98.08;97846.91;4963205;28;20034;-72
2023/11/19 09:43:41;;;;;;;16.25;14.60;;;;;;;11.50;97.58;97850.75;4960266;28;20436;-72
2023/11/19 09:46:07;;;;;;;14.15;12.65;;;;;;;11.54;98.15;97854.56;4942265;28;20034;-71
2023/11/19 09:48:42;;;;;;;9.40;8.50;;;;;;;11.53;97.52;97839.44;4959169;28;20566;-70
2023/11/19 09:51:09;;;;;;;8.38;7.68;;;;;;;11.60;97.40;97848.09;4958224;28;20038;-71
2023/11/19 09:53:36;;;;;;;6.57;6.07;;;;;;;11.58;97.33;97831.38;4964786;28;20490;-70
2023/11/19 09:56:05;;;;;;;6.90;6.30;;;;;;;11.63;97.41;97832.22;4961093;28;20069;-71
2023/11/19 09:58:31;;;;;;;7.03;6.43;;;;;;;11.60;97.10;97813.88;4962157;28;20023;-72
2023/11/19 10:01:00;;;;;;;7.30;6.70;;;;;;;11.68;97.29;97834.19;4959144;28;20042;-72
2023/11/19 10:03:32;;;;;;;9.30;8.50;;;;;;;11.63;97.40;97817.94;4979693;28;20467;-70
2023/11/19 10:05:57;;;;;;;10.20;9.23;;;;;;;11.58;97.50;97804.41;4943365;28;20039;-71
2023/11/19 10:08:23;;;;;;;8.60;7.70;;;;;;;11.57;97.38;97809.00;4949081;28;20656;-71
2023/11/19 10:10:49;;;;;;;7.40;6.80;;;;;;;11.53;97.38;97802.50;4949075;28;20411;-72
2023/11/19 10:13:14;;;;;;;8.13;7.43;;;;;;;11.58;97.35;97812.50;4966547;28;20072;-71
2023/11/19 10:15:40;;;;;;;8.75;7.90;;;;;;;11.57;97.74;97818.97;4971530;28;20402;-72
2023/11/19 10:18:05;;;;;;;8.88;8.18;;;;;;;11.46;97.65;97795.72;4960768;28;20073;-72
2023/11/19 10:20:38;;;;;;;14.45;13.15;;;;;;;11.54;97.85;97803.31;4963053;28;20051;-73
2023/11/19 10:23:04;;;;;;;8.32;7.55;;;;;;;11.49;98.20;97787.09;4958400;28;20046;-71
2023/11/19 10:25:29;;;;;;;9.13;8.43;;;;;;;11.45;97.83;97789.50;4952764;28;20031;-72
2023/11/19 10:27:56;;;;;;;8.82;7.93;;;;;;;11.50;98.32;97794.13;4958147;28;20457;-72
2023/11/19 10:30:30;;;;;;;7.90;7.30;;;;;;;11.59;98.17;97796.06;4978897;28;20026;-71
2023/11/19 10:33:06;;;;;;;7.13;6.50;;;;;;;11.84;97.94;97810.78;4951570;28;20034;-70
2023/11/19 10:35:32;;;;;;;9.23;8.40;;;;;;;12.10;97.64;97780.97;4956414;28;20042;-72
2023/11/19 10:38:17;;;;;;;8.73;7.60;;;;;;;12.29;97.68;97789.41;4975186;28;20491;-71
2023/11/19 10:40:42;;;;;;;7.00;6.45;;;;;;;12.27;97.94;97786.16;4948699;28;20045;-71
2023/11/19 10:43:08;;;;;;;7.47;6.88;;;;;;;12.17;98.31;97775.31;4965997;28;20030;-71
2023/11/19 10:45:38;;;;;;;5.70;5.25;;;;;;;12.23;98.24;97791.28;4961837;28;20205;-72
2023/11/19 10:48:07;;;;;;;5.70;5.30;;;;;;;12.21;98.65;97765.63;4962052;28;20069;-71
2023/11/19 10:50:37;;;;;;;12.70;11.38;;;;;;;12.29;97.87;97784.84;4954910;28;20479;-71
2023/11/19 10:53:03;;;;;;;15.18;13.10;;;;;;;12.43;98.44;97777.84;4964098;28;20034;-71
2023/11/19 10:55:30;;;;;;;6.80;5.32;;;;;;;12.43;98.43;97775.16;4961930;28;20043;-71
2023/11/19 10:58:00;;;;;;;5.40;5.00;;;;;;;12.59;97.55;97783.28;4972913;28;20042;-72
2023/11/19 11:00:30;;;;;;;6.53;5.18;;;;;;;12.57;97.66;97785.44;4970728;28;20490;-71
2023/11/19 11:03:00;;;;;;;4.80;4.40;;;;;;;12.70;97.13;97776.81;4966858;28;20037;-72
2023/11/19 11:05:26;;;;;;;4.72;4.38;;;;;;;12.81;95.79;97759.56;4979106;28;20121;-72
2023/11/19 11:07:52;;;;;;;5.80;4.28;;;;;;;13.16;95.43;97789.34;4982608;28;20116;-73
2023/11/19 11:10:18;;;;;;;8.00;4.10;;;;;;;13.25;93.53;97787.69;4933028;28;20031;-72
2023/11/19 11:12:43;;;;;;;4.28;3.15;;;;;;;13.25;91.96;97786.88;4958808;28;20758;-71
2023/11/19 11:15:11;;;;;;;4.20;3.20;;;;;;;13.33;90.69;97778.22;4989433;28;20069;-72
2023/11/19 11:17:39;;;;;;;4.63;2.88;;;;;;;13.34;89.51;97780.66;4944493;28;20035;-72
2023/11/19 11:20:05;;;;;;;4.65;2.72;;;;;;;13.18;88.65;97782.53;4967501;28;20485;-73
2023/11/19 11:22:42;;;;;;;4.10;2.25;;;;;;;13.30;87.45;97782.28;4943151;28;20403;-72